Time;durP1;ratioP1;P1;durP2;ratioP2;P2;SDS_P1;SDS_P2;PMS_P1;PMS_P2;Temp;Humidity;BMP_temperature;BMP_pressure;BME280_temperature;BME280_humidity;BME280_pressure;Samples;Min_cycle;Max_cycle;Signal;HPM_P1;HPM_P2
2022/07/22 00:01:38;;;;;;;61.43;8.43;;;;;;;26.06;58.68;99667.69;7313965;19;130247;-32
2022/07/22 00:04:03;;;;;;;39.00;6.30;;;;;;;26.08;57.95;99675.44;7313372;19;129219;-43
2022/07/22 00:06:29;;;;;;;60.00;8.43;;;;;;;26.07;58.22;99676.41;7303689;19;130688;-32
2022/07/22 00:08:55;;;;;;;54.03;7.27;;;;;;;26.08;57.70;99670.97;7310428;19;132798;-39
2022/07/22 00:11:21;;;;;;;41.57;6.37;;;;;;;26.07;57.42;99677.22;7308221;19;129605;-35
2022/07/22 00:13:46;;;;;;;59.55;8.20;;;;;;;26.08;57.61;99675.44;7303821;19;130388;-34
2022/07/22 00:16:12;;;;;;;48.50;6.90;;;;;;;26.07;57.44;99685.13;7309518;19;131428;-36
2022/07/22 00:18:37;;;;;;;98.83;10.97;;;;;;;26.09;57.94;99684.97;7303215;19;130960;-41
2022/07/22 00:21:03;;;;;;;67.17;8.83;;;;;;;26.09;57.47;99677.91;7296977;19;129607;-37
2022/07/22 00:23:29;;;;;;;121.07;12.57;;;;;;;26.09;57.35;99680.53;7294939;19;130469;-35
2022/07/22 00:25:54;;;;;;;95.67;11.03;;;;;;;26.07;58.49;99671.97;7289024;19;131551;-37
2022/07/22 00:28:20;;;;;;;111.60;11.97;;;;;;;26.09;58.20;99680.53;7297703;19;132564;-33
2022/07/22 00:30:45;;;;;;;31.33;5.53;;;;;;;26.11;57.33;99675.09;7309453;19;129462;-33
2022/07/22 00:33:10;;;;;;;36.80;6.37;;;;;;;26.10;57.54;99679.53;7311787;19;129381;-35
2022/07/22 00:35:36;;;;;;;51.30;7.40;;;;;;;26.01;58.04;99666.50;7310491;19;129413;-34
2022/07/22 00:38:01;;;;;;;51.33;7.63;;;;;;;26.10;58.28;99684.00;7311690;19;131025;-32
2022/07/22 00:40:27;;;;;;;17.47;5.03;;;;;;;26.08;57.92;99676.22;7313656;19;129205;-35
2022/07/22 00:42:52;;;;;;;67.27;8.43;;;;;;;26.07;57.84;99682.50;7310452;19;129377;-34
2022/07/22 00:45:18;;;;;;;45.30;7.00;;;;;;;26.09;57.51;99691.06;7311052;19;130217;-34
2022/07/22 00:47:44;;;;;;;48.27;6.93;;;;;;;26.07;57.27;99682.50;7309103;19;131305;-34
2022/07/22 00:50:09;;;;;;;54.27;7.47;;;;;;;26.08;57.74;99681.50;7312218;19;129504;-41
2022/07/22 00:52:35;;;;;;;39.77;6.67;;;;;;;26.08;57.36;99692.03;7311802;19;129196;-40
2022/07/22 00:55:02;;;;;;;73.60;8.63;;;;;;;26.08;57.66;99692.03;7310592;19;129252;-41
2022/07/22 00:57:28;;;;;;;31.95;5.30;;;;;;;26.07;57.37;99690.41;7311258;19;129399;-35
2022/07/22 00:59:53;;;;;;;38.67;6.20;;;;;;;26.04;57.65;99674.94;7312502;19;129102;-39
2022/07/22 01:02:19;;;;;;;36.80;6.67;;;;;;;26.08;57.09;99678.88;7311090;19;131490;-34
2022/07/22 01:04:44;;;;;;;40.17;6.20;;;;;;;26.08;58.12;99681.50;7312692;19;129443;-34
2022/07/22 01:07:10;;;;;;;41.70;6.20;;;;;;;26.05;57.47;99676.56;7304984;19;129127;-36
2022/07/22 01:09:35;;;;;;;44.73;7.00;;;;;;;26.04;57.31;99674.94;7311125;19;129196;-36
2022/07/22 01:12:02;;;;;;;57.47;8.00;;;;;;;26.07;57.60;99682.50;7302701;19;129620;-42
2022/07/22 01:14:28;;;;;;;52.10;7.32;;;;;;;26.07;57.47;99684.31;7302877;19;130852;-41
2022/07/22 01:16:53;;;;;;;40.83;6.23;;;;;;;26.08;58.46;99678.06;7306429;19;130433;-35
2022/07/22 01:19:19;;;;;;;50.57;6.87;;;;;;;26.07;58.14;99679.88;7312001;19;130795;-32
2022/07/22 01:21:44;;;;;;;30.97;5.73;;;;;;;26.09;57.99;99679.69;7310983;19;129289;-37
2022/07/22 01:24:09;;;;;;;31.73;5.77;;;;;;;26.09;57.55;99679.69;7312301;19;129551;-36
2022/07/22 01:26:35;;;;;;;50.80;7.27;;;;;;;26.08;57.21;99681.50;7309157;19;129627;-38
2022/07/22 01:29:00;;;;;;;23.00;5.57;;;;;;;26.09;57.02;99680.53;7311801;19;129411;-35
2022/07/22 01:31:26;;;;;;;34.07;6.23;;;;;;;26.09;57.56;99679.69;7312982;19;129771;-35
2022/07/22 01:33:51;;;;;;;56.00;7.07;;;;;;;26.06;57.57;99680.88;7312827;19;130105;-33
2022/07/22 01:36:17;;;;;;;57.63;7.77;;;;;;;26.08;57.60;99694.69;7305435;19;129911;-38
2022/07/22 01:38:42;;;;;;;34.60;5.77;;;;;;;26.06;57.93;99691.41;7311464;19;129099;-39
2022/07/22 01:41:07;;;;;;;32.47;5.80;;;;;;;26.09;57.60;99688.44;7313342;19;129368;-35
2022/07/22 01:43:33;;;;;;;28.87;4.93;;;;;;;26.08;57.48;99692.03;7310256;19;129064;-38
2022/07/22 01:45:59;;;;;;;40.33;6.30;;;;;;;26.08;57.55;99694.69;7309778;19;129849;-39
2022/07/22 01:48:25;;;;;;;40.50;6.30;;;;;;;26.09;57.55;99692.88;7313172;19;129539;-37
2022/07/22 01:50:50;;;;;;;31.57;5.60;;;;;;;26.06;57.67;99688.78;7311790;19;128903;-35
2022/07/22 01:53:16;;;;;;;31.63;6.13;;;;;;;26.07;57.08;99686.94;7311002;19;128936;-35
2022/07/22 01:55:42;;;;;;;21.03;5.17;;;;;;;26.01;57.71;99667.38;7311145;19;130972;-37
2022/07/22 01:58:07;;;;;;;63.73;8.30;;;;;;;26.09;56.94;99691.06;7309441;19;129562;-36
2022/07/22 02:00:33;;;;;;;37.47;6.50;;;;;;;26.08;57.49;99681.50;7309931;19;130595;-33
2022/07/22 02:02:59;;;;;;;44.80;7.07;;;;;;;26.07;57.36;99681.66;7313235;19;129197;-34
2022/07/22 02:05:24;;;;;;;39.97;6.60;;;;;;;26.06;58.03;99688.78;7309709;19;131075;-38
2022/07/22 02:07:50;;;;;;;48.67;6.70;;;;;;;26.06;57.34;99687.94;7309758;19;129861;-39
2022/07/22 02:10:16;;;;;;;43.00;7.13;;;;;;;26.06;57.74;99688.78;7309439;19;129229;-45
2022/07/22 02:12:42;;;;;;;36.63;6.63;;;;;;;26.07;57.36;99690.41;7310175;19;130024;-39
2022/07/22 02:15:08;;;;;;;56.03;8.03;;;;;;;26.08;58.06;99691.25;7309657;19;130333;-38
2022/07/22 02:17:34;;;;;;;34.53;5.93;;;;;;;26.08;57.52;99697.31;7308584;19;128785;-35
2022/07/22 02:20:00;;;;;;;47.78;6.95;;;;;;;26.06;57.50;99691.41;7310710;19;130114;-36
2022/07/22 02:22:25;;;;;;;44.00;7.13;;;;;;;26.08;57.72;99689.41;7310357;19;129114;-33
2022/07/22 02:24:50;;;;;;;38.23;6.90;;;;;;;26.09;57.03;99690.25;7309000;19;129763;-35
2022/07/22 02:27:16;;;;;;;36.13;6.47;;;;;;;26.06;57.18;99688.78;7309716;19;129381;-35
2022/07/22 02:29:41;;;;;;;29.83;6.07;;;;;;;26.07;57.27;99679.88;7312072;19;128988;-33
2022/07/22 02:32:07;;;;;;;38.50;6.23;;;;;;;26.07;57.35;99690.41;7317123;19;129215;-39
2022/07/22 02:34:32;;;;;;;61.03;7.90;;;;;;;26.07;57.53;99690.41;7316447;19;129307;-37
2022/07/22 02:36:57;;;;;;;34.40;6.23;;;;;;;26.03;57.30;99694.34;7316700;19;129369;-39
2022/07/22 02:39:23;;;;;;;49.17;7.53;;;;;;;26.05;56.90;99695.00;7312980;19;128926;-35
2022/07/22 02:41:48;;;;;;;38.07;5.87;;;;;;;26.04;57.35;99696.00;7316524;19;129505;-32
2022/07/22 02:44:14;;;;;;;37.57;6.37;;;;;;;26.06;57.23;99701.94;7314099;19;129370;-34
2022/07/22 02:46:39;;;;;;;39.93;6.73;;;;;;;26.05;57.37;99700.28;7310106;19;129658;-41
2022/07/22 02:49:05;;;;;;;91.70;11.43;;;;;;;26.04;57.38;99698.66;7313925;19;129005;-34
2022/07/22 02:51:30;;;;;;;36.97;6.53;;;;;;;26.06;58.26;99698.47;7315322;19;130144;-36
2022/07/22 02:53:57;;;;;;;30.30;5.93;;;;;;;26.07;57.17;99700.94;7311339;19;130273;-39
2022/07/22 02:56:22;;;;;;;31.15;6.10;;;;;;;26.06;58.02;99712.50;7314496;19;128999;-45
2022/07/22 02:58:51;;;;;;;35.90;6.03;;;;;;;26.08;57.40;99710.50;7316682;19;129280;-34
2022/07/22 03:01:17;;;;;;;31.60;6.18;;;;;;;25.99;58.06;99703.56;7315463;19;130216;-35
2022/07/22 03:03:43;;;;;;;27.47;5.63;;;;;;;26.06;57.83;99714.28;7315486;19;129186;-35
2022/07/22 03:06:08;;;;;;;42.63;6.07;;;;;;;26.07;57.42;99719.41;7313303;19;130494;-35
2022/07/22 03:08:33;;;;;;;23.23;5.50;;;;;;;26.07;57.39;99711.50;7314618;19;130499;-39
2022/07/22 03:10:59;;;;;;;103.33;11.37;;;;;;;26.07;57.63;99722.03;7298219;19;130931;-35
2022/07/22 03:13:24;;;;;;;34.57;6.13;;;;;;;26.06;57.23;99720.41;7311061;19;130417;-38
2022/07/22 03:15:49;;;;;;;38.30;6.10;;;;;;;26.05;57.54;99726.63;7317268;19;129182;-44
2022/07/22 03:18:15;;;;;;;55.13;8.47;;;;;;;26.04;57.67;99732.91;7315593;19;129846;-39
2022/07/22 03:20:40;;;;;;;36.80;6.67;;;;;;;26.07;58.36;99732.56;7312704;19;129343;-37
2022/07/22 03:23:05;;;;;;;35.37;5.70;;;;;;;26.07;57.68;99737.84;7314604;19;129998;-31
2022/07/22 03:25:32;;;;;;;41.10;7.03;;;;;;;25.99;57.32;99727.28;7314458;19;129403;-35
2022/07/22 03:27:57;;;;;;;48.63;7.00;;;;;;;26.08;57.63;99736.03;7313156;19;129095;-37
2022/07/22 03:30:23;;;;;;;40.43;6.10;;;;;;;26.07;56.95;99748.38;7313506;19;132005;-36
2022/07/22 03:32:49;;;;;;;40.90;6.57;;;;;;;26.07;56.90;99743.09;7314884;19;129693;-34
2022/07/22 03:35:16;;;;;;;55.65;7.75;;;;;;;26.07;57.44;99745.75;7316136;19;128663;-34
2022/07/22 03:37:42;;;;;;;31.48;5.80;;;;;;;26.07;57.94;99744.91;7313260;19;129401;-36
2022/07/22 03:40:08;;;;;;;56.53;8.07;;;;;;;26.06;57.73;99736.22;7314243;19;131284;-37
2022/07/22 03:42:34;;;;;;;47.80;7.25;;;;;;;26.06;57.35;99736.22;7316183;19;130453;-32
2022/07/22 03:44:59;;;;;;;41.90;6.13;;;;;;;26.08;57.33;99739.47;7315748;19;129284;-43
2022/07/22 03:47:25;;;;;;;37.53;6.57;;;;;;;26.06;57.15;99738.84;7311242;19;129643;-35
2022/07/22 03:49:51;;;;;;;29.90;5.17;;;;;;;26.06;56.86;99732.75;7312958;19;129351;-36
2022/07/22 03:52:17;;;;;;;33.47;5.80;;;;;;;26.05;57.66;99731.91;7312846;19;129643;-39
2022/07/22 03:54:43;;;;;;;12.93;4.93;;;;;;;26.05;58.03;99739.00;7315362;19;130457;-33
2022/07/22 03:57:09;;;;;;;34.73;5.97;;;;;;;26.05;57.82;99737.19;7313091;19;129317;-39
2022/07/22 03:59:35;;;;;;;32.03;5.78;;;;;;;26.06;58.20;99730.09;7312867;19;130728;-36
2022/07/22 04:02:00;;;;;;;61.50;8.07;;;;;;;26.03;57.45;99728.59;7312929;19;129943;-38
2022/07/22 04:04:26;;;;;;;31.33;6.30;;;;;;;26.04;56.78;99732.91;7315062;19;129779;-36
2022/07/22 04:06:51;;;;;;;36.17;6.20;;;;;;;26.04;57.95;99732.06;7312220;19;129731;-37
2022/07/22 04:09:17;;;;;;;24.73;5.30;;;;;;;26.06;57.53;99736.22;7312060;19;130398;-36
2022/07/22 04:11:43;;;;;;;29.97;5.47;;;;;;;26.04;57.57;99730.28;7312907;19;130610;-32
2022/07/22 04:14:08;;;;;;;59.67;7.97;;;;;;;26.05;57.95;99739.00;7302987;19;130854;-42
2022/07/22 04:16:34;;;;;;;40.60;6.70;;;;;;;26.06;57.18;99738.84;7311662;19;129987;-41
2022/07/22 04:19:00;;;;;;;66.28;8.10;;;;;;;26.04;57.05;99735.53;7312258;19;129855;-38
2022/07/22 04:21:26;;;;;;;30.83;5.70;;;;;;;25.97;57.46;99725.78;7313180;19;129475;-36
2022/07/22 04:23:52;;;;;;;79.47;9.45;;;;;;;26.05;57.60;99734.53;7309917;19;130281;-42
2022/07/22 04:26:17;;;;;;;43.93;6.83;;;;;;;26.06;57.37;99740.63;7306498;19;130725;-37
2022/07/22 04:28:43;;;;;;;56.40;7.47;;;;;;;26.05;57.37;99739.81;7306564;19;132211;-39
2022/07/22 04:31:08;;;;;;;59.27;7.97;;;;;;;25.98;57.77;99727.44;7304862;19;130512;-40
2022/07/22 04:33:34;;;;;;;58.07;7.97;;;;;;;26.06;58.03;99741.47;7306961;19;128836;-34
2022/07/22 04:35:59;;;;;;;65.40;8.37;;;;;;;26.07;57.38;99735.19;7304098;19;129794;-35
2022/07/22 04:38:25;;;;;;;63.67;8.07;;;;;;;26.07;57.54;99737.00;7313652;19;129249;-44
2022/07/22 04:40:50;;;;;;;32.57;5.97;;;;;;;25.98;57.26;99727.44;7309265;19;131463;-33
2022/07/22 04:43:16;;;;;;;52.27;6.83;;;;;;;26.06;57.30;99738.84;7305995;19;130306;-37
2022/07/22 04:45:41;;;;;;;46.20;6.70;;;;;;;25.98;57.75;99722.97;7308171;19;129408;-37
2022/07/22 04:48:06;;;;;;;83.13;10.20;;;;;;;26.06;57.93;99738.00;7310840;19;129486;-41
2022/07/22 04:50:32;;;;;;;61.97;8.37;;;;;;;26.04;57.27;99732.91;7306720;19;131356;-34
2022/07/22 04:52:57;;;;;;;51.57;7.10;;;;;;;26.04;57.67;99732.91;7307568;19;130108;-36
2022/07/22 04:55:23;;;;;;;46.07;6.87;;;;;;;26.05;57.86;99739.81;7312817;19;129264;-40
2022/07/22 04:57:48;;;;;;;45.30;6.67;;;;;;;26.06;57.68;99744.09;7306449;19;129612;-39
2022/07/22 05:00:15;;;;;;;44.23;6.80;;;;;;;26.07;57.25;99743.09;7309305;19;130057;-40
2022/07/22 05:02:41;;;;;;;29.58;5.47;;;;;;;26.06;58.07;99740.63;7307402;19;129454;-32
2022/07/22 05:05:07;;;;;;;36.20;6.20;;;;;;;25.98;56.94;99728.25;7311939;19;129685;-34
2022/07/22 05:07:32;;;;;;;34.73;5.70;;;;;;;26.05;57.60;99734.53;7307612;19;129161;-34
2022/07/22 05:09:57;;;;;;;86.73;9.83;;;;;;;26.07;57.67;99731.72;7309388;19;130885;-35
2022/07/22 05:12:23;;;;;;;31.67;5.03;;;;;;;26.05;57.83;99734.53;7313252;19;129034;-39
2022/07/22 05:14:48;;;;;;;69.73;8.63;;;;;;;26.05;57.33;99734.53;7307752;19;130243;-36
2022/07/22 05:17:13;;;;;;;32.40;5.53;;;;;;;26.04;57.12;99738.19;7307617;19;130173;-34
2022/07/22 05:19:39;;;;;;;35.37;5.87;;;;;;;25.98;58.00;99722.97;7311193;19;129472;-35
2022/07/22 05:22:08;;;;;;;37.00;5.63;;;;;;;26.06;58.20;99736.22;7313657;19;129041;-32
2022/07/22 05:24:33;;;;;;;49.15;6.90;;;;;;;26.05;57.37;99745.09;7310958;19;129081;-37
2022/07/22 05:26:58;;;;;;;74.50;9.23;;;;;;;26.03;58.03;99741.78;7302460;19;131670;-40
2022/07/22 05:29:24;;;;;;;87.27;9.87;;;;;;;26.01;57.50;99745.53;7294036;19;131015;-42
2022/07/22 05:31:49;;;;;;;38.83;5.60;;;;;;;26.02;57.14;99740.16;7312099;19;128878;-36
2022/07/22 05:34:15;;;;;;;61.87;7.97;;;;;;;26.03;57.08;99744.41;7309798;19;129029;-46
2022/07/22 05:36:40;;;;;;;40.07;6.17;;;;;;;26.02;57.25;99734.88;7296609;19;130352;-41
2022/07/22 05:39:06;;;;;;;17.53;3.93;;;;;;;25.98;57.48;99728.25;7312785;19;129186;-35
2022/07/22 05:41:31;;;;;;;54.27;7.23;;;;;;;26.05;57.06;99747.72;7310983;19;130914;-36
2022/07/22 05:43:56;;;;;;;43.67;6.37;;;;;;;25.98;57.90;99738.78;7311544;19;129281;-37
2022/07/22 05:46:22;;;;;;;45.93;6.63;;;;;;;26.04;57.22;99748.72;7311112;19;129973;-36
2022/07/22 05:48:47;;;;;;;22.27;4.60;;;;;;;26.07;57.34;99740.47;7312202;19;130299;-37
2022/07/22 05:51:14;;;;;;;33.33;5.27;;;;;;;26.05;57.70;99734.53;7311577;19;129204;-33
2022/07/22 05:53:41;;;;;;;47.70;7.05;;;;;;;26.05;56.88;99729.28;7308579;19;129923;-41
2022/07/22 05:56:07;;;;;;;48.05;6.78;;;;;;;26.04;57.65;99737.34;7304949;19;130463;-41
2022/07/22 05:58:32;;;;;;;46.40;6.33;;;;;;;25.96;56.84;99714.44;7304143;19;132208;-37
2022/07/22 06:00:58;;;;;;;47.33;6.60;;;;;;;26.05;57.30;99734.53;7311201;19;129079;-40
2022/07/22 06:03:24;;;;;;;39.37;5.70;;;;;;;26.06;57.44;99730.09;7297377;19;130308;-39
2022/07/22 06:05:49;;;;;;;29.10;5.07;;;;;;;26.03;57.97;99725.97;7310061;19;129510;-38
2022/07/22 06:08:14;;;;;;;59.97;7.40;;;;;;;26.06;57.18;99736.22;7311737;19;129581;-35
2022/07/22 06:10:40;;;;;;;37.53;5.63;;;;;;;26.05;57.37;99726.63;7313448;19;129023;-36
2022/07/22 06:13:05;;;;;;;43.03;6.03;;;;;;;26.00;56.94;99721.00;7310058;19;131329;-36
2022/07/22 06:15:31;;;;;;;27.77;4.80;;;;;;;26.05;56.51;99731.91;7312799;19;129464;-34
2022/07/22 06:17:56;;;;;;;33.90;5.10;;;;;;;26.05;57.08;99734.53;7307408;19;131003;-38
2022/07/22 06:20:21;;;;;;;34.77;5.57;;;;;;;26.03;56.98;99723.34;7311879;19;129076;-33
2022/07/22 06:22:47;;;;;;;65.83;6.90;;;;;;;26.06;56.87;99725.66;7309768;19;131283;-38
2022/07/22 06:25:12;;;;;;;92.60;9.53;;;;;;;26.07;58.12;99729.94;7302877;19;130178;-36
2022/07/22 06:27:38;;;;;;;67.40;7.70;;;;;;;25.99;57.29;99719.38;7295274;19;131426;-38
2022/07/22 06:30:04;;;;;;;47.80;5.80;;;;;;;26.09;56.91;99735.88;7304648;19;130638;-39
2022/07/22 06:32:29;;;;;;;24.50;4.50;;;;;;;26.07;57.37;99727.31;7308888;19;129747;-37
2022/07/22 06:34:54;;;;;;;59.23;7.57;;;;;;;26.06;57.05;99741.47;7310003;19;129145;-39
2022/07/22 06:37:20;;;;;;;49.87;6.03;;;;;;;26.06;57.62;99741.47;7305581;19;131134;-37
2022/07/22 06:39:47;;;;;;;30.27;4.70;;;;;;;26.05;56.76;99733.75;7312374;19;129786;-38
2022/07/22 06:42:13;;;;;;;45.33;5.78;;;;;;;26.08;57.05;99734.19;7308867;19;129545;-35
2022/07/22 06:44:39;;;;;;;30.40;4.80;;;;;;;26.06;57.10;99736.22;7310157;19;130088;-34
2022/07/22 06:47:04;;;;;;;34.33;5.20;;;;;;;26.08;56.84;99736.84;7308052;19;129686;-37
2022/07/22 06:49:30;;;;;;;33.80;5.13;;;;;;;26.04;57.48;99732.91;7309978;19;129188;-35
2022/07/22 06:51:55;;;;;;;41.03;6.23;;;;;;;26.08;57.12;99736.84;7310497;19;129034;-42
2022/07/22 06:54:21;;;;;;;27.80;4.63;;;;;;;26.07;57.73;99737.00;7309592;19;129055;-32
2022/07/22 06:56:46;;;;;;;38.10;5.60;;;;;;;26.04;57.41;99727.63;7308908;19;130371;-38
2022/07/22 06:59:12;;;;;;;85.13;8.57;;;;;;;26.04;57.69;99738.19;7303850;19;131096;-36
2022/07/22 07:01:37;;;;;;;37.73;5.23;;;;;;;26.05;57.09;99739.81;7299867;19;130884;-39
2022/07/22 07:04:03;;;;;;;38.90;5.30;;;;;;;26.05;57.64;99729.28;7309396;19;130345;-35
2022/07/22 07:06:28;;;;;;;24.47;4.27;;;;;;;26.04;57.56;99737.34;7307682;19;129919;-34
2022/07/22 07:08:54;;;;;;;31.70;4.43;;;;;;;26.04;57.04;99738.19;7310963;19;129169;-40
2022/07/22 07:11:19;;;;;;;42.43;5.30;;;;;;;26.06;57.79;99735.38;7307613;19;129350;-38
2022/07/22 07:13:44;;;;;;;29.07;4.50;;;;;;;26.06;57.19;99730.94;7309772;19;131891;-36
2022/07/22 07:16:10;;;;;;;35.67;4.80;;;;;;;26.06;57.06;99730.94;7314920;19;129383;-37
2022/07/22 07:18:35;;;;;;;27.70;3.83;;;;;;;26.06;56.62;99730.09;7315506;19;128813;-35
2022/07/22 07:21:01;;;;;;;32.17;4.60;;;;;;;26.04;56.99;99729.44;7316604;19;128987;-36
2022/07/22 07:23:26;;;;;;;31.30;4.73;;;;;;;26.04;57.75;99726.81;7316467;19;129661;-38
2022/07/22 07:25:52;;;;;;;26.50;4.23;;;;;;;26.05;57.38;99729.28;7316552;19;129576;-35
2022/07/22 07:28:17;;;;;;;61.23;6.77;;;;;;;26.04;57.16;99735.53;7313962;19;128857;-32
2022/07/22 07:30:43;;;;;;;24.77;4.17;;;;;;;26.05;56.67;99731.91;7317220;19;128910;-38
2022/07/22 07:33:08;;;;;;;53.23;6.00;;;;;;;26.04;57.71;99726.81;7314896;19;129751;-44
2022/07/22 07:35:34;;;;;;;23.87;4.07;;;;;;;26.03;57.45;99731.25;7315360;19;129673;-34
2022/07/22 07:37:59;;;;;;;44.00;5.60;;;;;;;26.01;57.01;99727.97;7315159;19;129582;-37
2022/07/22 07:40:25;;;;;;;26.00;4.47;;;;;;;26.04;57.12;99721.53;7315542;19;128843;-40
2022/07/22 07:42:51;;;;;;;36.13;4.90;;;;;;;26.05;57.40;99725.84;7316154;19;129422;-34
2022/07/22 07:45:16;;;;;;;26.50;4.03;;;;;;;26.02;56.43;99729.59;7315044;19;129236;-35
2022/07/22 07:47:42;;;;;;;31.30;4.67;;;;;;;26.03;56.77;99720.69;7314509;19;129527;-32
2022/07/22 07:50:08;;;;;;;33.03;4.27;;;;;;;26.03;56.56;99725.16;7315215;19;128805;-37
2022/07/22 07:52:41;;;;;;;32.37;4.63;;;;;;;26.02;58.64;99729.59;7315556;19;129496;-37
2022/07/22 07:55:08;;;;;;;42.55;5.43;;;;;;;26.00;57.02;99725.47;7315906;19;129656;-35
2022/07/22 07:57:33;;;;;;;;;;;;;;;26.04;59.34;99719.72;7314921;19;129156;-41
2022/07/22 07:59:59;;;;;;;40.08;4.88;;;;;;;26.03;57.57;99715.44;7315067;19;129125;-41
2022/07/22 08:02:24;;;;;;;43.30;5.33;;;;;;;26.01;56.82;99714.78;7316111;19;130150;-38
2022/07/22 08:04:50;;;;;;;29.10;4.57;;;;;;;25.93;57.21;99712.13;7315415;19;129581;-39
2022/07/22 08:07:15;;;;;;;36.50;4.83;;;;;;;26.00;57.34;99731.53;7314273;19;128817;-31
2022/07/22 08:09:41;;;;;;;42.63;5.47;;;;;;;26.00;56.68;99720.19;7314080;19;129005;-38
2022/07/22 08:12:06;;;;;;;71.97;7.03;;;;;;;26.01;57.46;99724.47;7312986;19;130051;-34
2022/07/22 08:14:32;;;;;;;33.10;4.43;;;;;;;26.00;57.66;99725.47;7311833;19;129642;-37
2022/07/22 08:16:58;;;;;;;15.37;3.47;;;;;;;25.98;57.00;99712.44;7313983;19;129170;-36
2022/07/22 08:19:23;;;;;;;30.30;4.10;;;;;;;26.01;57.71;99720.06;7315784;19;129222;-39
2022/07/22 08:21:49;;;;;;;16.07;4.00;;;;;;;25.98;57.16;99730.88;7315719;19;129741;-35
2022/07/22 08:24:14;;;;;;;43.57;5.40;;;;;;;25.95;57.15;99723.31;7314284;19;129772;-39
2022/07/22 08:26:40;;;;;;;21.43;3.93;;;;;;;25.97;57.27;99725.78;7311951;19;129734;-36
2022/07/22 08:29:07;;;;;;;41.57;5.27;;;;;;;25.99;56.90;99729.91;7315434;19;129318;-35
2022/07/22 08:31:34;;;;;;;33.25;4.68;;;;;;;25.97;56.38;99728.41;7314754;19;129470;-38
2022/07/22 08:34:00;;;;;;;46.47;6.13;;;;;;;25.95;57.21;99728.56;7312978;19;131379;-37
2022/07/22 08:36:27;;;;;;;17.20;3.50;;;;;;;25.94;57.42;99721.66;7313461;19;128750;-31
2022/07/22 08:38:52;;;;;;;40.20;5.25;;;;;;;25.96;56.91;99717.06;7313310;19;129010;-32
2022/07/22 08:41:20;;;;;;;46.57;5.70;;;;;;;25.98;56.66;99711.63;7314229;19;129292;-35
2022/07/22 08:43:47;;;;;;;29.25;4.20;;;;;;;25.98;57.14;99715.06;7314814;19;129647;-36
2022/07/22 08:46:13;;;;;;;18.58;3.45;;;;;;;25.99;56.90;99714.09;7312866;19;128753;-35
2022/07/22 08:48:39;;;;;;;31.10;4.60;;;;;;;25.94;57.30;99711.13;7313732;19;129670;-36
2022/07/22 08:51:05;;;;;;;25.92;3.90;;;;;;;25.97;57.18;99718.69;7311693;19;129112;-36
2022/07/22 08:53:31;;;;;;;;;;;;;;;26.00;59.43;99714.94;7314960;19;129662;-35
2022/07/22 08:55:58;;;;;;;31.45;4.93;;;;;;;25.98;57.40;99707.16;7314621;19;129094;-35
2022/07/22 08:58:25;;;;;;;28.40;4.25;;;;;;;25.99;56.93;99719.38;7313164;19;130017;-38
2022/07/22 09:01:08;;;;;;;34.13;4.82;;;;;;;25.99;59.27;99713.25;7314447;19;129434;-38
2022/07/22 09:03:33;;;;;;;31.02;4.75;;;;;;;25.94;56.89;99715.56;7313504;19;129298;-40
2022/07/22 09:05:59;;;;;;;46.53;5.57;;;;;;;25.87;56.52;99701.41;7312752;19;129669;-37
2022/07/22 09:08:25;;;;;;;30.70;4.27;;;;;;;25.95;56.88;99725.94;7310570;19;128858;-37
2022/07/22 09:10:50;;;;;;;37.90;5.10;;;;;;;25.87;57.46;99710.13;7312276;19;129994;-38
2022/07/22 09:13:16;;;;;;;31.30;4.23;;;;;;;25.95;57.27;99723.31;7313195;19;129262;-36
2022/07/22 09:15:54;;;;;;;25.77;4.03;;;;;;;25.93;59.24;99709.50;7313663;19;129095;-41
2022/07/22 09:18:20;;;;;;;30.77;4.25;;;;;;;25.97;57.34;99716.06;7312680;19;129201;-39
2022/07/22 09:20:46;;;;;;;41.60;5.10;;;;;;;25.93;56.87;99704.22;7313244;19;130137;-33
2022/07/22 09:23:14;;;;;;;33.70;4.17;;;;;;;25.88;57.37;99701.25;7312978;19;129757;-34
2022/07/22 09:25:40;;;;;;;30.70;4.72;;;;;;;25.97;56.97;99710.81;7313473;19;128900;-38
2022/07/22 09:28:06;;;;;;;57.60;6.67;;;;;;;25.97;57.66;99705.53;7310615;19;128950;-35
2022/07/22 09:30:34;;;;;;;27.17;3.97;;;;;;;25.95;57.01;99712.75;7314230;19;129129;-36
2022/07/22 09:32:59;;;;;;;41.15;5.22;;;;;;;25.92;56.53;99712.28;7312214;19;130378;-36
2022/07/22 09:35:25;;;;;;;41.90;5.33;;;;;;;25.90;56.77;99717.72;7311770;19;129882;-32
2022/07/22 09:37:53;;;;;;;30.10;4.57;;;;;;;25.88;57.30;99708.34;7309804;19;129061;-32
2022/07/22 09:40:22;;;;;;;36.40;4.75;;;;;;;25.87;57.38;99704.88;7312129;19;129705;-38
2022/07/22 09:42:51;;;;;;;22.50;3.90;;;;;;;25.91;56.76;99708.84;7311456;19;129660;-38
2022/07/22 09:45:17;;;;;;;35.72;4.22;;;;;;;25.94;56.55;99705.03;7312244;19;128905;-37
2022/07/22 09:47:44;;;;;;;37.10;5.00;;;;;;;25.93;57.04;99703.41;7309120;19;129200;-38
2022/07/22 09:50:20;;;;;;;38.28;4.95;;;;;;;25.92;58.94;99702.56;7311825;19;130402;-42
2022/07/22 09:52:47;;;;;;;38.78;5.30;;;;;;;25.93;57.74;99701.59;7311693;19;130691;-34
2022/07/22 09:55:17;;;;;;;53.17;6.00;;;;;;;25.92;58.29;99705.19;7313668;19;129644;-32
2022/07/22 09:57:43;;;;;;;32.53;4.68;;;;;;;25.92;56.60;99709.63;7309499;19;129478;-35
2022/07/22 10:00:09;;;;;;;51.03;5.95;;;;;;;25.88;56.96;99696.00;7310761;19;129417;-37
2022/07/22 10:02:59;;;;;;;17.25;3.75;;;;;;;25.88;59.04;99711.81;7311920;19;129641;-39
2022/07/22 10:05:26;;;;;;;34.05;4.78;;;;;;;25.89;57.09;99702.91;7312683;19;129305;-41
2022/07/22 10:07:52;;;;;;;34.88;5.10;;;;;;;25.91;57.32;99700.94;7310985;19;129233;-36
2022/07/22 10:10:20;;;;;;;39.50;5.03;;;;;;;25.93;57.02;99701.59;7311738;19;129161;-35
2022/07/22 10:12:49;;;;;;;41.75;5.47;;;;;;;25.91;57.98;99695.66;7311601;19;131362;-37
2022/07/22 10:15:15;;;;;;;44.80;5.35;;;;;;;25.91;56.44;99698.28;7312526;19;129084;-39
2022/07/22 10:17:43;;;;;;;29.43;4.30;;;;;;;25.92;56.37;99692.03;7310339;19;128894;-38
2022/07/22 10:20:10;;;;;;;33.05;4.63;;;;;;;25.90;56.46;99687.94;7310748;19;130237;-39
2022/07/22 10:22:38;;;;;;;43.67;5.50;;;;;;;25.90;58.39;99691.38;7311727;19;130313;-34
2022/07/22 10:25:04;;;;;;;38.85;5.28;;;;;;;25.90;57.29;99691.38;7311425;19;128966;-35
2022/07/22 10:27:47;;;;;;;27.43;4.63;;;;;;;25.89;59.16;99692.38;7308519;19;129049;-32
2022/07/22 10:30:14;;;;;;;36.25;4.80;;;;;;;25.88;56.40;99690.72;7311139;19;131024;-39
2022/07/22 10:32:40;;;;;;;27.30;4.38;;;;;;;25.89;56.78;99683.63;7311325;19;130489;-37
2022/07/22 10:35:06;;;;;;;29.70;4.63;;;;;;;25.87;56.40;99683.78;7311634;19;128921;-36
2022/07/22 10:37:34;;;;;;;42.17;5.43;;;;;;;25.87;57.36;99689.06;7307808;19;129413;-35
2022/07/22 10:40:15;;;;;;;37.40;4.85;;;;;;;25.87;58.94;99696.13;7310774;19;130192;-40
2022/07/22 10:42:56;;;;;;;24.55;4.25;;;;;;;25.81;59.15;99673.94;7311348;19;129439;-31
2022/07/22 10:45:24;;;;;;;32.50;4.60;;;;;;;25.91;57.17;99679.84;7310579;19;129162;-33
2022/07/22 10:47:56;;;;;;;48.10;5.78;;;;;;;25.89;58.22;99687.09;7308328;19;128960;-40
2022/07/22 10:50:37;;;;;;;37.72;5.47;;;;;;;25.91;58.85;99686.94;7314507;19;130526;-36
2022/07/22 10:53:07;;;;;;;34.40;4.95;;;;;;;25.91;57.90;99695.66;7316896;19;129766;-30
2022/07/22 10:55:33;;;;;;;47.17;5.47;;;;;;;25.91;57.48;99685.13;7317046;19;129115;-33
2022/07/22 10:57:59;;;;;;;35.40;4.85;;;;;;;25.91;56.80;99695.66;7317951;19;129033;-37
2022/07/22 11:00:25;;;;;;;31.53;4.73;;;;;;;25.91;56.75;99690.41;7317019;19;129670;-38
2022/07/22 11:02:51;;;;;;;39.97;5.20;;;;;;;25.93;56.93;99691.06;7314784;19;129641;-36
2022/07/22 11:05:27;;;;;;;37.23;5.20;;;;;;;25.93;59.04;99692.84;7316410;19;129016;-36
2022/07/22 11:07:52;;;;;;;51.47;5.53;;;;;;;25.92;57.05;99688.56;7315996;19;129060;-35
2022/07/22 11:10:20;;;;;;;29.63;4.17;;;;;;;25.85;57.98;99680.50;7316225;19;131012;-33
2022/07/22 11:12:47;;;;;;;29.95;4.30;;;;;;;25.94;56.94;99695.31;7317362;19;130469;-34